Florence, TX

7:55 AM CST on December 28, 2014 (GMT -0600)
Florence, Texas | Change Station
CLOSE
Current Station
Personal Weather Station
Location: Florence, TX
Elevation: 925 ft
Nearby Weather Stations

Elev 925 ft 30.82 °N, 97.73 °W | Updated 1 minute ago

Rain
Rain
34.2 °F
Feels Like 30 °F
N
4.9
Wind Variable Wind from NNE
Gusts 7.6 mph

Today
High -- | Low -- °F
--% Chance of Precip.
Yesterday
High -- | Low -- °F
Precip. -- in
7:27 AM 5:37 PM
Waxing Crescent, 48% visible
Pressure 30.23 in
Visibility 10.0 miles
Clouds Overcast 6000 ft
Windchill 30 °F
Dew Point 24 °F
Humidity 66%
Rainfall 0.00 in
Snow Depth Not available.
UV 0 out of 12
Pollen 8.80 out of 12
Air Quality Not available.
Flu Activity Not available.
METAR KGTU 281348Z 34008KT 10SM -RA OVC060 02/M01 A3023

More Conditions Fewer Conditions

Pressure 30.23 in
Visibility 10.0 miles
Clouds Overcast 6000 ft
Windchill 30 °F
Dew Point 24 °F
Humidity 66%
Rainfall 0.00 in
Snow Depth Not available.
UV 0 out of 12
Pollen 8.80 out of 12
Air Quality Not available.
Flu Activity Not available.
METAR KGTU 281348Z 34008KT 10SM -RA OVC060 02/M01 A3023

More Conditions Fewer Conditions

Nowcast | as of 6:05 am CST on December 28, 2014

Through 8:30 am...light rain showers will move across the region to the northeast. There may be some frozen precipitation mixed in with the rain. Any sleet or frozen rain is not expected to accumulate. Rainfall totals will be a few hundredths of an inch.

×

10-Day Weather Forecast

Almanac

Astronomy

Dec. 28, 2014 Rise Set
Actual Time
Civil Twilight
Nautical Twilight
Astronomical Twilight
Moon
Length of Visible Light
Length of Day
Tomorrow will be .
, % of the Moon is Illuminated

Today's Extremes

State Highs State Lows

Community

WunderPhotos

Upload Photos

1,781,262 photos uploaded!

WunderBlogs® & News

Nearby

Air Quality

  Air Quality AQ Index Pollutant
Not available.

Snow Depth

Station Depth Elevation

Earthquake Activity

City Distance Mag. Time & Date
Minimum magnitude displayed is 2.5.

Coastal Water Temperatures

Place Temperature

Nearby Weather Stations